sensor_id;sensor_type;location;lat;lon;timestamp;pressure;altitude;pressure_sealevel;temperature;humidity
75045;BME280;63614;56.026;35.960;2023-02-25T00:00:29;97233.44;;;-2.26;81.55
75045;BME280;63614;56.026;35.960;2023-02-25T00:02:58;97237.25;;;-2.30;81.92
75045;BME280;63614;56.026;35.960;2023-02-25T00:05:25;97235.81;;;-2.24;81.76
75045;BME280;63614;56.026;35.960;2023-02-25T00:07:52;97236.13;;;-2.11;81.77
75045;BME280;63614;56.026;35.960;2023-02-25T00:10:18;97237.56;;;-2.16;81.38
75045;BME280;63614;56.026;35.960;2023-02-25T00:12:44;97227.72;;;-2.20;81.34
75045;BME280;63614;56.026;35.960;2023-02-25T00:15:10;97235.34;;;-2.11;81.29
75045;BME280;63614;56.026;35.960;2023-02-25T00:17:36;97233.91;;;-1.97;80.88
75045;BME280;63614;56.026;35.960;2023-02-25T00:20:06;97233.09;;;-2.06;81.43
75045;BME280;63614;56.026;35.960;2023-02-25T00:22:35;97224.34;;;-2.04;80.94
75045;BME280;63614;56.026;35.960;2023-02-25T00:25:01;97229.16;;;-2.09;81.65
75045;BME280;63614;56.026;35.960;2023-02-25T00:27:28;97216.72;;;-2.12;81.29
75045;BME280;63614;56.026;35.960;2023-02-25T00:29:54;97227.38;;;-2.08;81.36
75045;BME280;63614;56.026;35.960;2023-02-25T00:32:21;97225.97;;;-2.03;81.40
75045;BME280;63614;56.026;35.960;2023-02-25T00:34:47;97228.50;;;-2.03;81.58
75045;BME280;63614;56.026;35.960;2023-02-25T00:37:13;97213.03;;;-2.01;81.01
75045;BME280;63614;56.026;35.960;2023-02-25T00:39:39;97215.09;;;-1.96;81.06
75045;BME280;63614;56.026;35.960;2023-02-25T00:42:09;97215.75;;;-2.03;80.92
75045;BME280;63614;56.026;35.960;2023-02-25T00:44:35;97213.03;;;-2.09;81.64
75045;BME280;63614;56.026;35.960;2023-02-25T00:47:02;97211.47;;;-2.02;81.44
75045;BME280;63614;56.026;35.960;2023-02-25T00:49:29;97216.25;;;-2.07;81.01
75045;BME280;63614;56.026;35.960;2023-02-25T00:51:54;97204.91;;;-1.96;80.85
75045;BME280;63614;56.026;35.960;2023-02-25T00:54:21;97204.44;;;-1.92;80.49
75045;BME280;63614;56.026;35.960;2023-02-25T00:56:47;97203.50;;;-2.07;81.03
75045;BME280;63614;56.026;35.960;2023-02-25T00:59:13;97204.13;;;-1.97;80.61
75045;BME280;63614;56.026;35.960;2023-02-25T01:01:39;97203.81;;;-1.94;80.60
75045;BME280;63614;56.026;35.960;2023-02-25T01:04:06;97198.25;;;-1.97;80.96
75045;BME280;63614;56.026;35.960;2023-02-25T01:06:33;97193.16;;;-1.97;81.12
75045;BME280;63614;56.026;35.960;2023-02-25T01:08:59;97197.91;;;-1.94;80.85
75045;BME280;63614;56.026;35.960;2023-02-25T01:11:31;97195.19;;;-2.01;80.90
75045;BME280;63614;56.026;35.960;2023-02-25T01:14:00;97195.53;;;-1.96;80.74
75045;BME280;63614;56.026;35.960;2023-02-25T01:16:28;97186.59;;;-2.00;81.36
75045;BME280;63614;56.026;35.960;2023-02-25T01:18:57;97193.31;;;-1.99;81.17
75045;BME280;63614;56.026;35.960;2023-02-25T01:21:26;97200.63;;;-1.96;81.38
75045;BME280;63614;56.026;35.960;2023-02-25T01:23:57;97185.03;;;-1.93;81.22
75045;BME280;63614;56.026;35.960;2023-02-25T01:26:25;97191.06;;;-1.94;81.25
75045;BME280;63614;56.026;35.960;2023-02-25T01:28:51;97186.41;;;-1.82;81.18
75045;BME280;63614;56.026;35.960;2023-02-25T01:31:19;97183.84;;;-1.82;81.15
75045;BME280;63614;56.026;35.960;2023-02-25T01:33:50;97177.97;;;-1.83;80.79
75045;BME280;63614;56.026;35.960;2023-02-25T01:36:16;97182.91;;;-1.81;81.09
75045;BME280;63614;56.026;35.960;2023-02-25T01:38:42;97180.38;;;-1.81;80.85
75045;BME280;63614;56.026;35.960;2023-02-25T01:41:08;97179.06;;;-1.69;81.09
75045;BME280;63614;56.026;35.960;2023-02-25T01:43:34;97168.91;;;-1.93;80.80
75045;BME280;63614;56.026;35.960;2023-02-25T01:46:00;97175.41;;;-1.74;81.01
75045;BME280;63614;56.026;35.960;2023-02-25T01:48:35;97166.53;;;-1.87;81.31
75045;BME280;63614;56.026;35.960;2023-02-25T01:51:08;97163.94;;;-1.70;80.91
75045;BME280;63614;56.026;35.960;2023-02-25T01:53:43;97153.91;;;-1.72;80.45
75045;BME280;63614;56.026;35.960;2023-02-25T01:56:11;97159.94;;;-1.73;80.52
75045;BME280;63614;56.026;35.960;2023-02-25T01:58:39;97162.47;;;-1.65;80.70
75045;BME280;63614;56.026;35.960;2023-02-25T02:01:13;97167.75;;;-1.74;80.85
75045;BME280;63614;56.026;35.960;2023-02-25T02:03:41;97155.31;;;-1.69;80.69
75045;BME280;63614;56.026;35.960;2023-02-25T02:08:46;97139.09;;;-1.76;80.62
75045;BME280;63614;56.026;35.960;2023-02-25T02:11:14;97146.91;;;-1.78;80.77
75045;BME280;63614;56.026;35.960;2023-02-25T02:13:43;97145.63;;;-1.82;80.88
75045;BME280;63614;56.026;35.960;2023-02-25T02:18:50;97160.34;;;-2.01;81.20
75045;BME280;63614;56.026;35.960;2023-02-25T02:24:09;97148.00;;;-1.64;80.35
75045;BME280;63614;56.026;35.960;2023-02-25T02:27:13;97145.63;;;-1.74;80.30
75045;BME280;63614;56.026;35.960;2023-02-25T02:32:49;97140.09;;;-1.86;81.18
75045;BME280;63614;56.026;35.960;2023-02-25T02:35:29;97142.47;;;-1.84;81.33
75045;BME280;63614;56.026;35.960;2023-02-25T02:40:38;97137.38;;;-1.84;81.37
75045;BME280;63614;56.026;35.960;2023-02-25T02:46:04;97146.22;;;-1.63;81.14
75045;BME280;63614;56.026;35.960;2023-02-25T02:51:29;97144.47;;;-1.63;81.23
75045;BME280;63614;56.026;35.960;2023-02-25T02:54:01;97143.09;;;-1.74;81.27
75045;BME280;63614;56.026;35.960;2023-02-25T02:56:30;97133.22;;;-1.77;81.52
75045;BME280;63614;56.026;35.960;2023-02-25T02:59:06;97120.28;;;-1.67;81.59
75045;BME280;63614;56.026;35.960;2023-02-25T03:01:44;97106.53;;;-1.58;81.19
75045;BME280;63614;56.026;35.960;2023-02-25T03:04:15;97099.75;;;-1.42;80.66
75045;BME280;63614;56.026;35.960;2023-02-25T03:06:44;97123.34;;;-1.40;80.32
75045;BME280;63614;56.026;35.960;2023-02-25T03:09:19;97120.97;;;-1.42;80.89
75045;BME280;63614;56.026;35.960;2023-02-25T03:11:48;97131.66;;;-1.47;81.26
75045;BME280;63614;56.026;35.960;2023-02-25T03:14:14;97132.41;;;-1.38;81.06
75045;BME280;63614;56.026;35.960;2023-02-25T03:16:45;97116.66;;;-1.41;81.27
75045;BME280;63614;56.026;35.960;2023-02-25T03:19:19;97113.22;;;-1.25;80.44
75045;BME280;63614;56.026;35.960;2023-02-25T03:22:14;97104.47;;;-1.31;80.70
75045;BME280;63614;56.026;35.960;2023-02-25T03:27:32;97113.09;;;-1.32;80.76
75045;BME280;63614;56.026;35.960;2023-02-25T03:32:31;97127.63;;;-1.10;80.22
75045;BME280;63614;56.026;35.960;2023-02-25T03:35:01;97123.91;;;-0.99;80.07
75045;BME280;63614;56.026;35.960;2023-02-25T03:37:31;97127.94;;;-0.81;79.38
75045;BME280;63614;56.026;35.960;2023-02-25T03:40:03;97122.69;;;-0.88;79.52
75045;BME280;63614;56.026;35.960;2023-02-25T03:42:38;97117.88;;;-1.06;79.54
75045;BME280;63614;56.026;35.960;2023-02-25T03:45:07;97119.38;;;-1.12;79.98
75045;BME280;63614;56.026;35.960;2023-02-25T03:47:36;97111.53;;;-1.10;80.44
75045;BME280;63614;56.026;35.960;2023-02-25T03:52:29;97110.06;;;-1.04;80.10
75045;BME280;63614;56.026;35.960;2023-02-25T03:54:59;97105.75;;;-1.04;80.30
75045;BME280;63614;56.026;35.960;2023-02-25T03:57:38;97105.47;;;-1.09;80.27
75045;BME280;63614;56.026;35.960;2023-02-25T04:00:07;97101.13;;;-1.00;80.42
75045;BME280;63614;56.026;35.960;2023-02-25T04:02:41;97101.38;;;-0.95;80.51
75045;BME280;63614;56.026;35.960;2023-02-25T04:05:07;97098.22;;;-0.97;80.58
75045;BME280;63614;56.026;35.960;2023-02-25T04:07:34;97105.06;;;-0.98;80.72
75045;BME280;63614;56.026;35.960;2023-02-25T04:10:01;97103.78;;;-0.94;80.62
75045;BME280;63614;56.026;35.960;2023-02-25T04:12:28;97108.47;;;-1.05;80.96
75045;BME280;63614;56.026;35.960;2023-02-25T04:14:54;97110.00;;;-0.96;81.58
75045;BME280;63614;56.026;35.960;2023-02-25T04:17:20;97103.50;;;-0.99;81.76
75045;BME280;63614;56.026;35.960;2023-02-25T04:19:46;97107.28;;;-0.95;81.70
75045;BME280;63614;56.026;35.960;2023-02-25T04:22:12;97110.91;;;-0.89;81.52
75045;BME280;63614;56.026;35.960;2023-02-25T04:24:38;97106.09;;;-0.84;81.38
75045;BME280;63614;56.026;35.960;2023-02-25T04:27:04;97114.53;;;-0.83;81.51
75045;BME280;63614;56.026;35.960;2023-02-25T04:29:30;97109.22;;;-0.97;81.89
75045;BME280;63614;56.026;35.960;2023-02-25T04:31:55;97098.91;;;-1.03;82.24
75045;BME280;63614;56.026;35.960;2023-02-25T04:34:21;97093.00;;;-1.04;82.56
75045;BME280;63614;56.026;35.960;2023-02-25T04:36:47;97099.69;;;-1.03;82.80
75045;BME280;63614;56.026;35.960;2023-02-25T04:39:15;97096.47;;;-0.97;82.80
75045;BME280;63614;56.026;35.960;2023-02-25T04:41:41;97091.63;;;-0.92;82.85
75045;BME280;63614;56.026;35.960;2023-02-25T04:44:08;97106.16;;;-0.92;82.97
75045;BME280;63614;56.026;35.960;2023-02-25T04:46:36;97096.91;;;-0.93;82.88
75045;BME280;63614;56.026;35.960;2023-02-25T04:49:04;97113.41;;;-0.81;82.57
75045;BME280;63614;56.026;35.960;2023-02-25T04:51:30;97111.75;;;-0.74;82.27
75045;BME280;63614;56.026;35.960;2023-02-25T04:53:56;97120.13;;;-0.80;82.27
75045;BME280;63614;56.026;35.960;2023-02-25T04:56:22;97120.63;;;-0.84;82.18
75045;BME280;63614;56.026;35.960;2023-02-25T04:58:48;97120.84;;;-0.94;82.88
75045;BME280;63614;56.026;35.960;2023-02-25T05:01:15;97123.78;;;-0.82;82.92
75045;BME280;63614;56.026;35.960;2023-02-25T05:03:41;97131.00;;;-0.86;82.39
75045;BME280;63614;56.026;35.960;2023-02-25T05:06:07;97129.56;;;-0.88;83.07
75045;BME280;63614;56.026;35.960;2023-02-25T05:08:34;97129.78;;;-0.75;82.94
75045;BME280;63614;56.026;35.960;2023-02-25T05:11:01;97126.28;;;-0.74;82.25
75045;BME280;63614;56.026;35.960;2023-02-25T05:13:27;97118.81;;;-0.61;82.45
75045;BME280;63614;56.026;35.960;2023-02-25T05:16:11;97105.28;;;-0.46;81.75
75045;BME280;63614;56.026;35.960;2023-02-25T05:18:39;97115.72;;;-0.48;81.34
75045;BME280;63614;56.026;35.960;2023-02-25T05:21:13;97106.38;;;-0.41;80.93
75045;BME280;63614;56.026;35.960;2023-02-25T05:23:41;97115.34;;;-0.45;81.35
75045;BME280;63614;56.026;35.960;2023-02-25T05:26:08;97110.78;;;-0.34;80.88
75045;BME280;63614;56.026;35.960;2023-02-25T05:28:34;97108.16;;;-0.26;80.65
75045;BME280;63614;56.026;35.960;2023-02-25T05:31:08;97109.84;;;-0.19;80.24
75045;BME280;63614;56.026;35.960;2023-02-25T05:33:35;97112.56;;;-0.35;80.37
75045;BME280;63614;56.026;35.960;2023-02-25T05:36:05;97113.69;;;-0.23;80.97
75045;BME280;63614;56.026;35.960;2023-02-25T05:38:31;97123.28;;;-0.40;80.88
75045;BME280;63614;56.026;35.960;2023-02-25T05:40:59;97134.97;;;-0.22;81.27
75045;BME280;63614;56.026;35.960;2023-02-25T05:43:25;97132.66;;;-0.17;80.53
75045;BME280;63614;56.026;35.960;2023-02-25T05:45:56;97143.06;;;-0.19;81.48
75045;BME280;63614;56.026;35.960;2023-02-25T05:48:23;97141.84;;;-0.08;80.87
75045;BME280;63614;56.026;35.960;2023-02-25T05:50:49;97145.09;;;0.16;80.19
75045;BME280;63614;56.026;35.960;2023-02-25T05:53:17;97140.78;;;0.16;79.74
75045;BME280;63614;56.026;35.960;2023-02-25T05:55:44;97133.09;;;0.02;80.13
75045;BME280;63614;56.026;35.960;2023-02-25T05:58:10;97136.72;;;0.07;80.32
75045;BME280;63614;56.026;35.960;2023-02-25T06:00:37;97133.13;;;0.16;80.32
75045;BME280;63614;56.026;35.960;2023-02-25T06:03:04;97118.91;;;0.14;79.97
75045;BME280;63614;56.026;35.960;2023-02-25T06:05:31;97125.81;;;0.13;80.26
75045;BME280;63614;56.026;35.960;2023-02-25T06:07:57;97125.09;;;0.20;80.04
75045;BME280;63614;56.026;35.960;2023-02-25T06:10:24;97128.69;;;0.25;80.10
75045;BME280;63614;56.026;35.960;2023-02-25T06:12:51;97122.88;;;0.46;79.81
75045;BME280;63614;56.026;35.960;2023-02-25T06:15:17;97132.41;;;0.38;79.75
75045;BME280;63614;56.026;35.960;2023-02-25T06:17:43;97128.88;;;0.39;79.58
75045;BME280;63614;56.026;35.960;2023-02-25T06:20:09;97133.91;;;0.47;79.33
75045;BME280;63614;56.026;35.960;2023-02-25T06:22:35;97137.78;;;0.43;79.92
75045;BME280;63614;56.026;35.960;2023-02-25T06:25:01;97127.63;;;0.34;80.23
75045;BME280;63614;56.026;35.960;2023-02-25T06:27:29;97130.56;;;0.31;80.41
75045;BME280;63614;56.026;35.960;2023-02-25T06:29:55;97154.09;;;0.27;80.90
75045;BME280;63614;56.026;35.960;2023-02-25T06:32:21;97144.66;;;0.42;79.87
75045;BME280;63614;56.026;35.960;2023-02-25T06:34:47;97143.78;;;0.50;79.81
75045;BME280;63614;56.026;35.960;2023-02-25T06:37:13;97147.53;;;0.54;79.71
75045;BME280;63614;56.026;35.960;2023-02-25T06:39:39;97149.91;;;0.56;79.70
75045;BME280;63614;56.026;35.960;2023-02-25T06:42:08;97149.06;;;0.48;80.17
75045;BME280;63614;56.026;35.960;2023-02-25T06:44:34;97129.34;;;0.64;79.37
75045;BME280;63614;56.026;35.960;2023-02-25T06:47:00;97143.19;;;0.69;79.20
75045;BME280;63614;56.026;35.960;2023-02-25T06:49:26;97137.09;;;0.85;79.14
75045;BME280;63614;56.026;35.960;2023-02-25T06:51:52;97133.25;;;0.96;78.59
75045;BME280;63614;56.026;35.960;2023-02-25T06:54:17;97130.81;;;1.09;78.34
75045;BME280;63614;56.026;35.960;2023-02-25T06:56:43;97130.31;;;1.21;78.20
75045;BME280;63614;56.026;35.960;2023-02-25T06:59:09;97141.84;;;1.10;78.14
75045;BME280;63614;56.026;35.960;2023-02-25T07:01:35;97138.69;;;1.30;78.08
75045;BME280;63614;56.026;35.960;2023-02-25T07:04:03;97144.53;;;1.23;78.63
75045;BME280;63614;56.026;35.960;2023-02-25T07:06:29;97136.19;;;1.36;77.70
75045;BME280;63614;56.026;35.960;2023-02-25T07:08:55;97141.50;;;1.35;77.58
75045;BME280;63614;56.026;35.960;2023-02-25T07:13:52;97141.41;;;1.50;77.17
75045;BME280;63614;56.026;35.960;2023-02-25T07:16:17;97142.16;;;1.43;77.71
75045;BME280;63614;56.026;35.960;2023-02-25T07:18:44;97139.28;;;1.32;77.56
75045;BME280;63614;56.026;35.960;2023-02-25T07:21:10;97141.41;;;1.50;77.67
75045;BME280;63614;56.026;35.960;2023-02-25T07:23:37;97146.16;;;1.53;77.54
75045;BME280;63614;56.026;35.960;2023-02-25T07:26:04;97148.03;;;1.66;76.79
75045;BME280;63614;56.026;35.960;2023-02-25T07:28:32;97128.66;;;1.85;76.29
75045;BME280;63614;56.026;35.960;2023-02-25T07:31:02;97137.78;;;1.66;77.02
75045;BME280;63614;56.026;35.960;2023-02-25T07:33:29;97146.38;;;1.79;76.92
75045;BME280;63614;56.026;35.960;2023-02-25T07:35:56;97142.91;;;1.94;76.27
75045;BME280;63614;56.026;35.960;2023-02-25T07:38:23;97148.69;;;2.03;75.86
75045;BME280;63614;56.026;35.960;2023-02-25T07:40:49;97146.78;;;2.11;75.94
75045;BME280;63614;56.026;35.960;2023-02-25T07:43:15;97155.94;;;1.92;76.13
75045;BME280;63614;56.026;35.960;2023-02-25T07:45:41;97154.47;;;2.11;76.03
75045;BME280;63614;56.026;35.960;2023-02-25T07:48:07;97154.97;;;2.28;75.53
75045;BME280;63614;56.026;35.960;2023-02-25T07:50:32;97153.41;;;2.34;75.02
75045;BME280;63614;56.026;35.960;2023-02-25T07:52:58;97148.50;;;2.39;75.33
75045;BME280;63614;56.026;35.960;2023-02-25T07:55:24;97144.94;;;2.33;74.93
75045;BME280;63614;56.026;35.960;2023-02-25T07:57:50;97140.25;;;2.50;74.38
75045;BME280;63614;56.026;35.960;2023-02-25T08:00:16;97144.25;;;2.60;73.88
75045;BME280;63614;56.026;35.960;2023-02-25T08:02:45;97147.13;;;2.98;73.24
75045;BME280;63614;56.026;35.960;2023-02-25T08:05:11;97153.28;;;3.11;72.19
75045;BME280;63614;56.026;35.960;2023-02-25T08:07:37;97156.44;;;3.06;72.68
75045;BME280;63614;56.026;35.960;2023-02-25T08:10:03;97151.09;;;2.94;73.05
75045;BME280;63614;56.026;35.960;2023-02-25T08:12:30;97145.94;;;2.87;73.07
75045;BME280;63614;56.026;35.960;2023-02-25T08:14:56;97153.53;;;2.61;74.21
75045;BME280;63614;56.026;35.960;2023-02-25T08:17:24;97144.34;;;2.86;73.63
75045;BME280;63614;56.026;35.960;2023-02-25T08:19:51;97147.13;;;2.98;73.03
75045;BME280;63614;56.026;35.960;2023-02-25T08:22:16;97152.53;;;3.30;72.69
75045;BME280;63614;56.026;35.960;2023-02-25T08:24:44;97155.72;;;3.32;72.23
75045;BME280;63614;56.026;35.960;2023-02-25T08:27:10;97157.84;;;3.22;72.58
75045;BME280;63614;56.026;35.960;2023-02-25T08:29:36;97166.19;;;3.44;72.26
75045;BME280;63614;56.026;35.960;2023-02-25T08:32:05;97161.25;;;3.42;71.80
75045;BME280;63614;56.026;35.960;2023-02-25T08:34:31;97161.44;;;3.41;71.75
75045;BME280;63614;56.026;35.960;2023-02-25T08:36:57;97162.84;;;3.50;71.81
75045;BME280;63614;56.026;35.960;2023-02-25T08:39:24;97161.56;;;3.06;73.37
75045;BME280;63614;56.026;35.960;2023-02-25T08:41:50;97156.69;;;3.38;72.68
75045;BME280;63614;56.026;35.960;2023-02-25T08:44:16;97159.44;;;3.43;72.24
75045;BME280;63614;56.026;35.960;2023-02-25T08:46:45;97158.28;;;3.39;72.38
75045;BME280;63614;56.026;35.960;2023-02-25T08:49:12;97150.75;;;3.57;71.91
75045;BME280;63614;56.026;35.960;2023-02-25T08:51:38;97154.13;;;3.58;71.65
75045;BME280;63614;56.026;35.960;2023-02-25T08:54:07;97156.50;;;3.66;71.35
75045;BME280;63614;56.026;35.960;2023-02-25T08:56:35;97154.31;;;3.76;71.27
75045;BME280;63614;56.026;35.960;2023-02-25T08:59:02;97154.72;;;3.80;71.06
75045;BME280;63614;56.026;35.960;2023-02-25T09:01:28;97158.88;;;3.61;71.50
75045;BME280;63614;56.026;35.960;2023-02-25T09:04:18;97157.88;;;3.62;71.51
75045;BME280;63614;56.026;35.960;2023-02-25T09:06:44;97161.25;;;3.69;71.38
75045;BME280;63614;56.026;35.960;2023-02-25T09:09:14;97164.78;;;3.21;72.86
75045;BME280;63614;56.026;35.960;2023-02-25T09:11:40;97158.28;;;3.59;72.10
75045;BME280;63614;56.026;35.960;2023-02-25T09:14:07;97159.66;;;3.41;72.42
75045;BME280;63614;56.026;35.960;2023-02-25T09:16:33;97154.53;;;3.61;71.50
75045;BME280;63614;56.026;35.960;2023-02-25T09:18:58;97149.19;;;3.56;72.01
75045;BME280;63614;56.026;35.960;2023-02-25T09:21:24;97152.16;;;3.47;72.58
75045;BME280;63614;56.026;35.960;2023-02-25T09:23:53;97143.06;;;3.64;71.90
75045;BME280;63614;56.026;35.960;2023-02-25T09:26:20;97142.84;;;3.59;72.29
75045;BME280;63614;56.026;35.960;2023-02-25T09:28:46;97146.78;;;3.41;72.48
75045;BME280;63614;56.026;35.960;2023-02-25T09:31:13;97152.16;;;3.60;72.74
75045;BME280;63614;56.026;35.960;2023-02-25T09:33:40;97145.03;;;3.55;72.35
75045;BME280;63614;56.026;35.960;2023-02-25T09:36:19;97149.38;;;3.68;71.94
75045;BME280;63614;56.026;35.960;2023-02-25T09:38:47;97135.75;;;3.68;72.32
75045;BME280;63614;56.026;35.960;2023-02-25T09:44:17;97134.97;;;3.74;72.06
75045;BME280;63614;56.026;35.960;2023-02-25T09:46:54;97130.19;;;3.84;71.83
75045;BME280;63614;56.026;35.960;2023-02-25T09:49:35;97142.44;;;3.89;71.43
75045;BME280;63614;56.026;35.960;2023-02-25T09:52:13;97148.38;;;3.96;71.54
75045;BME280;63614;56.026;35.960;2023-02-25T09:54:48;97153.53;;;4.03;71.46
75045;BME280;63614;56.026;35.960;2023-02-25T09:57:19;97153.53;;;3.76;71.91
75045;BME280;63614;56.026;35.960;2023-02-25T09:59:47;97158.47;;;3.57;73.39
75045;BME280;63614;56.026;35.960;2023-02-25T10:02:25;97149.56;;;3.67;73.13
75045;BME280;63614;56.026;35.960;2023-02-25T10:05:27;97135.34;;;3.64;72.93
75045;BME280;63614;56.026;35.960;2023-02-25T10:10:58;97133.16;;;3.94;71.53
75045;BME280;63614;56.026;35.960;2023-02-25T10:13:46;97143.81;;;3.98;71.61
75045;BME280;63614;56.026;35.960;2023-02-25T10:19:20;97140.28;;;3.79;72.63
75045;BME280;63614;56.026;35.960;2023-02-25T10:24:39;97141.09;;;3.59;73.21
75045;BME280;63614;56.026;35.960;2023-02-25T10:27:35;97130.19;;;3.84;72.93
75045;BME280;63614;56.026;35.960;2023-02-25T10:30:19;97128.00;;;3.94;72.38
75045;BME280;63614;56.026;35.960;2023-02-25T10:32:47;97123.81;;;4.00;72.06
75045;BME280;63614;56.026;35.960;2023-02-25T10:35:26;97121.88;;;4.02;71.82
75045;BME280;63614;56.026;35.960;2023-02-25T10:37:53;97127.00;;;4.02;71.86
75045;BME280;63614;56.026;35.960;2023-02-25T10:40:22;97128.63;;;3.83;72.75
75045;BME280;63614;56.026;35.960;2023-02-25T10:42:52;97129.03;;;3.80;72.52
75045;BME280;63614;56.026;35.960;2023-02-25T10:45:23;97122.47;;;3.77;72.93
75045;BME280;63614;56.026;35.960;2023-02-25T10:47:57;97121.88;;;3.89;72.57
75045;BME280;63614;56.026;35.960;2023-02-25T10:50:27;97113.16;;;3.96;72.26
75045;BME280;63614;56.026;35.960;2023-02-25T10:57:54;97115.06;;;4.21;71.92
75045;BME280;63614;56.026;35.960;2023-02-25T11:00:26;97112.28;;;4.36;71.05
75045;BME280;63614;56.026;35.960;2023-02-25T11:02:54;97116.00;;;4.40;70.87
75045;BME280;63614;56.026;35.960;2023-02-25T11:05:33;97119.28;;;4.09;71.92
75045;BME280;63614;56.026;35.960;2023-02-25T11:08:01;97131.38;;;3.88;72.43
75045;BME280;63614;56.026;35.960;2023-02-25T11:10:31;97125.25;;;3.76;73.10
75045;BME280;63614;56.026;35.960;2023-02-25T11:12:59;97124.28;;;3.57;73.61
75045;BME280;63614;56.026;35.960;2023-02-25T11:18:14;97138.50;;;3.66;73.49
75045;BME280;63614;56.026;35.960;2023-02-25T11:20:54;97132.19;;;3.55;73.95
75045;BME280;63614;56.026;35.960;2023-02-25T11:26:54;97136.94;;;3.52;74.51
75045;BME280;63614;56.026;35.960;2023-02-25T11:29:30;97140.28;;;3.52;74.67
75045;BME280;63614;56.026;35.960;2023-02-25T11:34:33;97148.00;;;3.45;74.75
75045;BME280;63614;56.026;35.960;2023-02-25T11:37:42;97151.53;;;3.31;75.65
75045;BME280;63614;56.026;35.960;2023-02-25T11:45:42;97146.59;;;3.23;76.11
75045;BME280;63614;56.026;35.960;2023-02-25T11:51:25;97140.69;;;3.29;75.85
75045;BME280;63614;56.026;35.960;2023-02-25T11:54:16;97137.28;;;3.08;76.89
75045;BME280;63614;56.026;35.960;2023-02-25T11:56:50;97146.41;;;3.18;76.74
75045;BME280;63614;56.026;35.960;2023-02-25T11:59:38;97145.19;;;3.14;76.75
75045;BME280;63614;56.026;35.960;2023-02-25T12:05:36;97149.94;;;3.10;76.79
75045;BME280;63614;56.026;35.960;2023-02-25T12:10:51;97161.38;;;3.01;77.48
75045;BME280;63614;56.026;35.960;2023-02-25T12:13:41;97156.41;;;2.99;77.56
75045;BME280;63614;56.026;35.960;2023-02-25T12:16:40;97158.03;;;3.07;77.61
75045;BME280;63614;56.026;35.960;2023-02-25T12:46:13;97140.22;;;2.92;78.50
75045;BME280;63614;56.026;35.960;2023-02-25T13:08:02;97120.47;;;2.93;78.94
75045;BME280;63614;56.026;35.960;2023-02-25T13:15:59;97114.88;;;2.76;79.30
75045;BME280;63614;56.026;35.960;2023-02-25T13:47:42;97096.69;;;2.70;80.37
75045;BME280;63614;56.026;35.960;2023-02-25T14:02:23;97097.69;;;2.69;80.76
75045;BME280;63614;56.026;35.960;2023-02-25T14:05:33;97081.88;;;2.72;80.50
75045;BME280;63614;56.026;35.960;2023-02-25T14:17:11;97078.94;;;2.69;81.02
75045;BME280;63614;56.026;35.960;2023-02-25T14:20:07;97085.84;;;2.62;81.02
75045;BME280;63614;56.026;35.960;2023-02-25T14:22:46;97085.03;;;2.61;81.21
75045;BME280;63614;56.026;35.960;2023-02-25T14:33:46;97071.75;;;2.44;82.08
75045;BME280;63614;56.026;35.960;2023-02-25T14:47:29;97048.81;;;2.29;82.93
75045;BME280;63614;56.026;35.960;2023-02-25T14:55:26;97057.53;;;2.35;82.76
75045;BME280;63614;56.026;35.960;2023-02-25T15:01:10;97052.97;;;2.30;82.81
75045;BME280;63614;56.026;35.960;2023-02-25T15:11:52;97018.97;;;2.15;83.87
75045;BME280;63614;56.026;35.960;2023-02-25T15:14:41;97017.22;;;2.15;83.84
75045;BME280;63614;56.026;35.960;2023-02-25T15:17:15;97015.81;;;2.13;83.99
75045;BME280;63614;56.026;35.960;2023-02-25T15:23:02;97001.56;;;2.04;84.43
75045;BME280;63614;56.026;35.960;2023-02-25T15:33:40;97022.84;;;2.04;84.61
75045;BME280;63614;56.026;35.960;2023-02-25T15:38:53;97012.00;;;2.02;84.70
75045;BME280;63614;56.026;35.960;2023-02-25T15:46:46;97026.03;;;2.06;84.72
75045;BME280;63614;56.026;35.960;2023-02-25T15:49:21;97012.47;;;2.12;84.24
75045;BME280;63614;56.026;35.960;2023-02-25T15:51:53;97006.13;;;2.15;84.21
75045;BME280;63614;56.026;35.960;2023-02-25T15:57:44;96995.66;;;2.03;84.76
75045;BME280;63614;56.026;35.960;2023-02-25T15:59:49;96999.78;;;2.04;84.99
75045;BME280;63614;56.026;35.960;2023-02-25T16:07:40;96993.84;;;1.90;85.38
75045;BME280;63614;56.026;35.960;2023-02-25T16:12:44;96997.38;;;1.89;85.52
75045;BME280;63614;56.026;35.960;2023-02-25T16:15:19;97005.81;;;1.83;85.78
75045;BME280;63614;56.026;35.960;2023-02-25T16:17:47;96999.34;;;1.94;85.51
75045;BME280;63614;56.026;35.960;2023-02-25T16:20:25;96987.31;;;1.88;85.70
75045;BME280;63614;56.026;35.960;2023-02-25T16:22:57;96989.88;;;1.88;86.10
75045;BME280;63614;56.026;35.960;2023-02-25T16:25:34;96983.94;;;1.80;86.05
75045;BME280;63614;56.026;35.960;2023-02-25T16:28:11;96983.78;;;1.89;86.21
75045;BME280;63614;56.026;35.960;2023-02-25T16:31:17;96970.75;;;1.90;85.96
75045;BME280;63614;56.026;35.960;2023-02-25T16:34:09;96981.19;;;1.89;85.71
75045;BME280;63614;56.026;35.960;2023-02-25T16:39:22;96980.47;;;2.02;85.63
75045;BME280;63614;56.026;35.960;2023-02-25T16:41:51;96968.97;;;1.91;85.84
75045;BME280;63614;56.026;35.960;2023-02-25T16:44:45;96974.28;;;1.89;85.53
75045;BME280;63614;56.026;35.960;2023-02-25T16:47:29;96972.31;;;1.85;85.89
75045;BME280;63614;56.026;35.960;2023-02-25T16:49:57;96975.88;;;1.84;85.93
75045;BME280;63614;56.026;35.960;2023-02-25T16:52:37;96956.16;;;1.91;85.57
75045;BME280;63614;56.026;35.960;2023-02-25T16:55:06;96949.63;;;1.88;85.88
75045;BME280;63614;56.026;35.960;2023-02-25T16:57:37;96952.19;;;1.81;85.93
75045;BME280;63614;56.026;35.960;2023-02-25T17:00:16;96941.16;;;1.81;86.09
75045;BME280;63614;56.026;35.960;2023-02-25T17:02:48;96949.63;;;1.81;85.73
75045;BME280;63614;56.026;35.960;2023-02-25T17:08:03;96944.75;;;1.93;85.39
75045;BME280;63614;56.026;35.960;2023-02-25T17:10:32;96947.69;;;1.90;85.40
75045;BME280;63614;56.026;35.960;2023-02-25T17:13:01;96931.53;;;1.96;85.21
75045;BME280;63614;56.026;35.960;2023-02-25T17:15:30;96935.66;;;1.91;84.96